Time;durP1;ratioP1;P1;durP2;ratioP2;P2;SDS_P1;SDS_P2;PMS_P1;PMS_P2;Temp;Humidity;BMP_temperature;BMP_pressure;BME280_temperature;BME280_humidity;BME280_pressure;Samples;Min_cycle;Max_cycle;Signal;HPM_P1;HPM_P2
2024/02/28 00:01:53;;;;;;;28.50;13.30;;;;;;;2.21;100.00;98657.47;6110053;19;20003;-70
2024/02/28 00:03:53;;;;;;;29.05;13.32;;;;;;;2.17;100.00;98653.78;6111068;19;20066;-70
2024/02/28 00:05:53;;;;;;;28.38;12.57;;;;;;;2.14;100.00;98655.22;6110737;19;20007;-71
2024/02/28 00:07:54;;;;;;;31.00;13.75;;;;;;;2.13;100.00;98650.88;6111370;19;20070;-70
2024/02/28 00:09:57;;;;;;;27.50;12.88;;;;;;;2.13;100.00;98656.34;6109562;19;20036;-70
2024/02/28 00:11:57;;;;;;;29.90;12.88;;;;;;;2.16;100.00;98654.91;6110751;19;20007;-70
2024/02/28 00:14:00;;;;;;;32.30;13.52;;;;;;;2.14;100.00;98652.47;6100630;19;20030;-70
2024/02/28 00:16:00;;;;;;;26.58;13.27;;;;;;;2.10;100.00;98659.72;6110262;19;20023;-70
2024/02/28 00:18:00;;;;;;;26.05;12.80;;;;;;;2.09;100.00;98651.84;6110111;19;20006;-71
2024/02/28 00:20:01;;;;;;;27.80;12.73;;;;;;;2.08;100.00;98653.78;6109910;19;20466;-71
2024/02/28 00:22:01;;;;;;;29.13;13.95;;;;;;;2.10;100.00;98645.25;6109065;19;20329;-71
2024/02/28 00:24:01;;;;;;;27.17;14.55;;;;;;;2.08;100.00;98653.78;6108856;19;20442;-71
2024/02/28 00:26:02;;;;;;;27.30;12.85;;;;;;;2.08;100.00;98656.50;6108039;19;19998;-71
2024/02/28 00:28:03;;;;;;;29.23;12.85;;;;;;;2.08;100.00;98663.88;6109882;19;20002;-71
2024/02/28 00:30:07;;;;;;;28.50;12.85;;;;;;;2.09;100.00;98658.09;6108402;19;20011;-70
2024/02/28 00:32:07;;;;;;;34.25;14.68;;;;;;;2.06;100.00;98656.00;6108189;19;20511;-71
2024/02/28 00:34:08;;;;;;;34.85;14.55;;;;;;;2.07;100.00;98663.09;6106951;19;19994;-70
2024/02/28 00:36:09;;;;;;;31.38;14.93;;;;;;;2.09;100.00;98666.28;6110348;19;20002;-71
2024/02/28 00:38:09;;;;;;;33.08;14.45;;;;;;;2.07;100.00;98668.53;6109488;19;20973;-71
2024/02/28 00:40:10;;;;;;;33.45;12.93;;;;;;;2.04;100.00;98660.97;6108665;19;20005;-70
2024/02/28 00:42:10;;;;;;;31.48;13.75;;;;;;;2.08;100.00;98663.88;6108716;19;20033;-70
2024/02/28 00:44:10;;;;;;;30.80;13.93;;;;;;;2.07;100.00;98656.78;6109050;19;19998;-70
2024/02/28 00:46:12;;;;;;;27.55;12.85;;;;;;;2.06;100.00;98664.19;6110005;19;20066;-71
2024/02/28 00:48:12;;;;;;;25.70;11.95;;;;;;;2.04;100.00;98655.50;6109747;19;19995;-70
2024/02/28 00:50:12;;;;;;;28.98;14.25;;;;;;;2.11;100.00;98663.25;6107846;19;20463;-71
2024/02/28 00:52:13;;;;;;;32.65;13.95;;;;;;;2.08;100.00;98650.25;6108558;19;20507;-71
2024/02/28 00:54:13;;;;;;;28.80;12.90;;;;;;;2.09;100.00;98668.22;6106271;19;20001;-70
2024/02/28 00:56:13;;;;;;;26.83;12.25;;;;;;;2.04;100.00;98658.25;6108063;19;20050;-70
2024/02/28 00:58:15;;;;;;;25.48;12.45;;;;;;;2.06;100.00;98657.91;6109672;19;20036;-71
2024/02/28 01:00:15;;;;;;;26.63;13.35;;;;;;;2.03;100.00;98662.09;6109017;19;19998;-70
2024/02/28 01:02:16;;;;;;;27.98;12.98;;;;;;;2.04;100.00;98663.69;6107889;19;20005;-70
2024/02/28 01:04:16;;;;;;;30.65;13.65;;;;;;;2.02;100.00;98657.75;6108580;19;20006;-70
2024/02/28 01:06:16;;;;;;;30.48;13.98;;;;;;;2.04;100.00;98658.25;6108977;19;20407;-70
2024/02/28 01:08:17;;;;;;;27.42;13.85;;;;;;;2.04;100.00;98650.06;6108745;19;20003;-71
2024/02/28 01:10:18;;;;;;;30.08;13.35;;;;;;;2.04;100.00;98660.16;6108318;19;20337;-71
2024/02/28 01:12:18;;;;;;;33.75;14.73;;;;;;;2.05;100.00;98653.59;6106696;19;20026;-70
2024/02/28 01:14:18;;;;;;;30.50;13.73;;;;;;;2.04;100.00;98646.53;6107144;19;20003;-70
2024/02/28 01:16:19;;;;;;;30.35;13.10;;;;;;;2.05;100.00;98656.31;6101701;19;20003;-71
2024/02/28 01:18:19;;;;;;;29.20;13.18;;;;;;;2.06;100.00;98657.91;6102424;19;19999;-70
2024/02/28 01:20:19;;;;;;;30.88;13.85;;;;;;;2.07;100.00;98651.34;6101740;19;20002;-70
2024/02/28 01:22:20;;;;;;;34.38;15.10;;;;;;;2.08;100.00;98651.03;6101583;19;20321;-70
2024/02/28 01:24:20;;;;;;;31.02;14.40;;;;;;;2.06;100.00;98645.06;6101889;19;20086;-70
2024/02/28 01:26:22;;;;;;;33.45;14.68;;;;;;;2.02;100.00;98649.56;6102761;19;20030;-70
2024/02/28 01:28:22;;;;;;;33.85;14.55;;;;;;;2.00;100.00;98643.63;6102222;19;20002;-70
2024/02/28 01:30:22;;;;;;;36.50;14.82;;;;;;;2.00;100.00;98646.38;6101623;19;20074;-71
2024/02/28 01:32:23;;;;;;;37.72;15.50;;;;;;;1.96;100.00;98648.91;6101395;19;20011;-70
2024/02/28 01:34:23;;;;;;;33.22;15.43;;;;;;;1.93;100.00;98646.03;6102851;19;20006;-70
2024/02/28 01:36:23;;;;;;;30.88;13.60;;;;;;;1.90;100.00;98649.38;6101742;19;20010;-70
2024/02/28 01:38:24;;;;;;;29.00;13.32;;;;;;;1.91;100.00;98646.34;6101812;19;20021;-70
2024/02/28 01:40:24;;;;;;;32.85;14.05;;;;;;;1.92;100.00;98642.50;6100922;19;20799;-70
2024/02/28 01:42:24;;;;;;;33.40;14.63;;;;;;;1.93;100.00;98644.09;6100063;19;20017;-70
2024/02/28 01:44:25;;;;;;;32.70;13.98;;;;;;;1.95;100.00;98649.22;6099944;19;20339;-70
2024/02/28 01:46:27;;;;;;;33.28;15.43;;;;;;;1.92;100.00;98645.22;6101160;19;20813;-71
2024/02/28 01:48:28;;;;;;;27.10;14.15;;;;;;;1.94;100.00;98647.63;6100270;19;20381;-70
2024/02/28 01:50:28;;;;;;;31.10;13.75;;;;;;;1.95;100.00;98651.97;6100137;19;20629;-70
2024/02/28 01:52:29;;;;;;;26.17;13.25;;;;;;;1.94;100.00;98647.63;6099162;19;20006;-70
2024/02/28 01:54:30;;;;;;;28.02;14.15;;;;;;;1.96;100.00;98650.84;6101435;19;20006;-70
2024/02/28 01:56:31;;;;;;;29.00;13.20;;;;;;;1.95;100.00;98641.03;6101119;19;20276;-70
2024/02/28 01:58:31;;;;;;;31.83;13.93;;;;;;;1.95;100.00;98646.50;6101905;19;20010;-70
2024/02/28 02:00:33;;;;;;;31.33;14.32;;;;;;;1.91;100.00;98649.06;6100910;19;20030;-70
2024/02/28 02:02:34;;;;;;;29.10;14.05;;;;;;;1.89;100.00;98640.38;6101102;19;20017;-70
2024/02/28 02:04:34;;;;;;;31.90;14.73;;;;;;;1.94;100.00;98644.91;6099816;19;20007;-70
2024/02/28 02:06:38;;;;;;;32.63;14.38;;;;;;;1.94;100.00;98650.34;6100603;19;20459;-70
2024/02/28 02:08:39;;;;;;;28.00;14.23;;;;;;;1.95;100.00;98646.50;6100905;19;20309;-70
2024/02/28 02:10:41;;;;;;;36.63;14.70;;;;;;;1.95;100.00;98647.31;6100463;19;20349;-70
2024/02/28 02:12:41;;;;;;;29.80;14.15;;;;;;;1.96;100.00;98650.84;6100168;19;20002;-70
2024/02/28 02:14:47;;;;;;;29.85;14.23;;;;;;;1.97;100.00;98653.25;6102149;19;20041;-70
2024/02/28 02:16:47;;;;;;;29.98;14.02;;;;;;;1.98;100.00;98643.13;6107298;19;20058;-71
2024/02/28 02:18:48;;;;;;;33.33;14.27;;;;;;;1.98;100.00;98651.31;6107385;19;20014;-70
2024/02/28 02:20:58;;;;;;;30.50;13.07;;;;;;;2.01;100.00;98652.63;6105346;19;20013;-70
2024/02/28 02:22:59;;;;;;;26.73;12.40;;;;;;;2.00;100.00;98657.28;6108031;19;20010;-70
2024/02/28 02:24:59;;;;;;;32.13;13.98;;;;;;;1.98;100.00;98656.78;6107701;19;19999;-70
2024/02/28 02:27:00;;;;;;;29.90;12.55;;;;;;;1.98;100.00;98660.31;6108269;19;20014;-70
2024/02/28 02:29:00;;;;;;;28.70;13.93;;;;;;;1.95;100.00;98650.03;6107668;19;20384;-70
2024/02/28 02:31:01;;;;;;;34.05;13.20;;;;;;;1.96;100.00;98651.63;6105369;19;20010;-70
2024/02/28 02:33:01;;;;;;;27.13;13.63;;;;;;;1.96;100.00;98661.75;6106487;19;20001;-70
2024/02/28 02:35:01;;;;;;;33.88;14.75;;;;;;;2.00;100.00;98661.94;6107341;19;20007;-70
2024/02/28 02:37:02;;;;;;;37.72;15.43;;;;;;;1.97;100.00;98669.63;6106822;19;20015;-71
2024/02/28 02:39:03;;;;;;;29.80;13.65;;;;;;;1.97;100.00;98666.09;6107407;19;20479;-70
2024/02/28 02:41:03;;;;;;;33.83;15.98;;;;;;;1.96;100.00;98664.47;6105003;19;19995;-70
2024/02/28 02:43:03;;;;;;;33.05;13.48;;;;;;;1.97;100.00;98669.63;6107233;19;19999;-71
2024/02/28 02:45:04;;;;;;;35.90;14.57;;;;;;;2.00;100.00;98659.22;6106996;19;20011;-70
2024/02/28 02:47:04;;;;;;;36.55;16.05;;;;;;;2.01;100.00;98664.34;6107283;19;19998;-70
2024/02/28 02:49:05;;;;;;;36.28;15.32;;;;;;;2.00;100.00;98654.56;6107440;19;20026;-70
2024/02/28 02:51:05;;;;;;;26.60;13.13;;;;;;;2.00;100.00;98653.75;6104562;19;19998;-70
2024/02/28 02:53:09;;;;;;;37.60;16.15;;;;;;;1.97;100.00;98647.78;6105665;19;20041;-70
2024/02/28 02:55:09;;;;;;;31.15;14.63;;;;;;;1.96;100.00;98657.09;6107674;19;20007;-70
2024/02/28 02:57:10;;;;;;;29.27;14.15;;;;;;;1.96;100.00;98657.09;6106653;19;20013;-70
2024/02/28 02:59:12;;;;;;;36.33;14.52;;;;;;;1.93;100.00;98654.22;6106342;19;20395;-70
2024/02/28 03:01:12;;;;;;;37.10;14.83;;;;;;;1.95;100.00;98662.88;6104090;19;20001;-70
2024/02/28 03:03:12;;;;;;;34.20;14.55;;;;;;;1.95;100.00;98654.69;6107235;19;20011;-70
2024/02/28 03:05:13;;;;;;;36.35;15.63;;;;;;;1.94;100.00;98653.09;6105059;19;20006;-70
2024/02/28 03:07:13;;;;;;;36.13;14.38;;;;;;;1.94;100.00;98656.63;6106405;19;19998;-70
2024/02/28 03:09:14;;;;;;;31.42;14.77;;;;;;;1.96;100.00;98656.28;6106718;19;19998;-70
2024/02/28 03:11:15;;;;;;;31.65;14.88;;;;;;;1.94;100.00;98658.53;6104923;19;20030;-70
2024/02/28 03:13:15;;;;;;;32.63;14.75;;;;;;;1.95;100.00;98669.13;6106549;19;20009;-70
2024/02/28 03:15:16;;;;;;;28.52;14.13;;;;;;;1.95;100.00;98666.41;6106083;19;20348;-70
2024/02/28 03:17:16;;;;;;;27.33;14.40;;;;;;;1.97;100.00;98666.09;6111298;19;20024;-70
2024/02/28 03:19:16;;;;;;;31.77;14.25;;;;;;;1.94;100.00;98664.81;6112033;19;20466;-70
2024/02/28 03:21:17;;;;;;;33.75;15.27;;;;;;;1.94;100.00;98664.81;6109900;19;20499;-70
2024/02/28 03:23:17;;;;;;;31.60;14.40;;;;;;;1.95;100.00;98662.88;6112664;19;20014;-70
2024/02/28 03:25:17;;;;;;;31.02;14.90;;;;;;;1.94;100.00;98664.81;6111535;19;19998;-71
2024/02/28 03:27:18;;;;;;;31.63;14.02;;;;;;;1.96;100.00;98669.94;6111847;19;20006;-70
2024/02/28 03:29:18;;;;;;;34.55;15.68;;;;;;;1.95;100.00;98673.78;6111875;19;20111;-70
2024/02/28 03:31:18;;;;;;;32.05;15.30;;;;;;;1.93;100.00;98667.84;6110012;19;20007;-70
2024/02/28 03:33:19;;;;;;;32.67;14.80;;;;;;;1.95;100.00;98671.88;6111234;19;20123;-70
2024/02/28 03:35:19;;;;;;;31.95;14.02;;;;;;;1.94;100.00;98669.47;6111908;19;20309;-70
2024/02/28 03:37:20;;;;;;;34.78;14.95;;;;;;;1.96;100.00;98678.94;6111945;19;20007;-70
2024/02/28 03:39:20;;;;;;;30.30;13.57;;;;;;;1.96;100.00;98678.94;6111357;19;20014;-70
2024/02/28 03:41:20;;;;;;;29.88;14.30;;;;;;;1.95;100.00;98687.44;6109525;19;20003;-70
2024/02/28 03:43:21;;;;;;;30.08;15.55;;;;;;;1.96;100.00;98689.84;6111452;19;20027;-70
2024/02/28 03:45:22;;;;;;;36.08;15.30;;;;;;;1.96;100.00;98699.97;6110743;19;20010;-70
2024/02/28 03:47:22;;;;;;;30.35;14.43;;;;;;;1.95;100.00;98688.25;6110312;19;20355;-70
2024/02/28 03:49:23;;;;;;;30.88;13.60;;;;;;;1.99;100.00;98699.34;6111398;19;20486;-70
2024/02/28 03:51:23;;;;;;;27.85;12.30;;;;;;;2.02;100.00;98704.16;6109954;19;20013;-70
2024/02/28 03:53:23;;;;;;;28.83;14.07;;;;;;;2.02;100.00;98708.81;6110587;19;20002;-70
2024/02/28 03:55:24;;;;;;;29.02;13.95;;;;;;;2.01;100.00;98710.75;6110727;19;20010;-70
2024/02/28 03:57:24;;;;;;;27.55;13.93;;;;;;;1.99;100.00;98713.00;6111720;19;20288;-70
2024/02/28 03:59:24;;;;;;;31.42;13.90;;;;;;;1.99;100.00;98713.00;6110763;19;20003;-70
2024/02/28 04:01:25;;;;;;;27.85;14.40;;;;;;;1.98;100.00;98717.63;6109714;19;20002;-71
2024/02/28 04:03:26;;;;;;;31.48;14.73;;;;;;;1.99;100.00;98718.44;6110701;19;20078;-70
2024/02/28 04:05:26;;;;;;;32.85;14.70;;;;;;;1.95;100.00;98718.25;6111157;19;20028;-70
2024/02/28 04:07:26;;;;;;;35.70;14.80;;;;;;;1.98;100.00;98720.34;6110304;19;20013;-70
2024/02/28 04:09:27;;;;;;;27.02;14.18;;;;;;;1.96;100.00;98716.34;6111345;19;19999;-70
2024/02/28 04:11:27;;;;;;;31.15;14.73;;;;;;;1.97;100.00;98715.22;6109286;19;20029;-70
2024/02/28 04:13:27;;;;;;;30.58;14.43;;;;;;;1.96;100.00;98721.78;6109943;19;20009;-70
2024/02/28 04:15:30;;;;;;;31.02;14.20;;;;;;;1.96;100.00;98716.34;6110851;19;20025;-70
2024/02/28 04:17:30;;;;;;;31.48;14.93;;;;;;;1.97;100.00;98723.41;6110585;19;20058;-70
2024/02/28 04:19:37;;;;;;;31.30;15.07;;;;;;;1.97;100.00;98715.22;6110291;19;20023;-70
2024/02/28 04:21:37;;;;;;;25.25;13.88;;;;;;;1.95;100.00;98717.47;6110171;19;20488;-70
2024/02/28 04:23:38;;;;;;;32.35;15.23;;;;;;;1.94;100.00;98713.13;6109823;19;20011;-70
2024/02/28 04:25:40;;;;;;;31.65;15.60;;;;;;;1.94;100.00;98713.91;6111579;19;20026;-70
2024/02/28 04:27:40;;;;;;;32.10;14.43;;;;;;;1.96;100.00;98719.06;6109553;19;20011;-70
2024/02/28 04:29:41;;;;;;;33.00;15.05;;;;;;;1.93;100.00;98715.03;6109651;19;20013;-70
2024/02/28 04:31:41;;;;;;;29.83;14.85;;;;;;;1.93;100.00;98723.22;6107187;19;20007;-70
2024/02/28 04:33:41;;;;;;;28.75;14.40;;;;;;;1.96;100.00;98722.59;6110091;19;20002;-70
2024/02/28 04:35:42;;;;;;;32.60;15.60;;;;;;;1.96;100.00;98722.59;6109389;19;20030;-70
2024/02/28 04:37:42;;;;;;;26.88;13.77;;;;;;;1.93;100.00;98730.63;6110520;19;20062;-70
2024/02/28 04:39:42;;;;;;;33.22;15.07;;;;;;;1.95;100.00;98726.44;6109624;19;20007;-70
2024/02/28 04:41:43;;;;;;;32.53;15.30;;;;;;;1.92;100.00;98731.75;6106866;19;20003;-70
2024/02/28 04:43:43;;;;;;;30.50;15.25;;;;;;;1.95;100.00;98733.81;6108662;19;19999;-70
2024/02/28 04:45:43;;;;;;;28.17;13.88;;;;;;;1.95;100.00;98739.28;6109262;19;20795;-70
2024/02/28 04:47:44;;;;;;;26.40;13.82;;;;;;;1.96;100.00;98738.97;6107916;19;20011;-70
2024/02/28 04:49:44;;;;;;;30.63;14.77;;;;;;;1.93;100.00;98739.59;6108037;19;19995;-70
2024/02/28 04:51:44;;;;;;;27.25;14.10;;;;;;;1.94;100.00;98743.13;6109259;19;20003;-70
2024/02/28 04:53:45;;;;;;;30.98;15.40;;;;;;;1.92;100.00;98746.19;6109323;19;20003;-70
2024/02/28 04:55:45;;;;;;;30.02;14.73;;;;;;;1.90;100.00;98740.25;6107748;19;20002;-70
2024/02/28 04:57:45;;;;;;;31.10;14.70;;;;;;;1.90;100.00;98744.88;6110058;19;20044;-70
2024/02/28 04:59:46;;;;;;;30.65;14.65;;;;;;;1.93;100.00;98747.78;6109100;19;20024;-70
2024/02/28 05:01:47;;;;;;;26.73;15.45;;;;;;;1.93;100.00;98755.19;6109243;19;20013;-70
2024/02/28 05:03:48;;;;;;;30.85;14.73;;;;;;;1.92;100.00;98754.38;6108940;19;20010;-70
2024/02/28 05:05:48;;;;;;;32.78;14.20;;;;;;;1.91;100.00;98750.03;6106861;19;20930;-70
2024/02/28 05:07:49;;;;;;;30.95;15.25;;;;;;;1.90;100.00;98755.78;6109242;19;20022;-70
2024/02/28 05:09:49;;;;;;;27.55;13.80;;;;;;;1.87;100.00;98751.78;6108495;19;20006;-70
2024/02/28 05:11:50;;;;;;;26.58;14.18;;;;;;;1.89;100.00;98757.72;6109360;19;20309;-70
2024/02/28 05:13:50;;;;;;;29.25;14.77;;;;;;;1.87;100.00;98765.41;6100190;19;20005;-70
2024/02/28 05:15:50;;;;;;;31.63;13.95;;;;;;;1.87;100.00;98764.59;6107400;19;20478;-70
2024/02/28 05:17:52;;;;;;;30.75;14.63;;;;;;;1.83;100.00;98759.00;6106939;19;20030;-70
2024/02/28 05:19:52;;;;;;;29.05;14.93;;;;;;;1.87;100.00;98759.16;6109322;19;20006;-70
2024/02/28 05:21:53;;;;;;;33.83;14.55;;;;;;;1.88;100.00;98758.03;6108708;19;20402;-70
2024/02/28 05:23:53;;;;;;;31.30;14.43;;;;;;;1.88;100.00;98750.66;6107134;19;20006;-70
2024/02/28 05:25:53;;;;;;;32.10;15.57;;;;;;;1.87;100.00;98753.69;6109800;19;20006;-70
2024/02/28 05:27:54;;;;;;;30.15;15.70;;;;;;;1.87;100.00;98748.25;6109064;19;20361;-70
2024/02/28 05:29:54;;;;;;;27.75;13.38;;;;;;;1.85;100.00;98756.75;6108145;19;20006;-70
2024/02/28 05:31:54;;;;;;;27.15;14.52;;;;;;;1.82;100.00;98759.28;6109695;19;20010;-70
2024/02/28 05:33:56;;;;;;;31.35;14.98;;;;;;;1.78;100.00;98763.75;6108924;19;20058;-70
2024/02/28 05:35:57;;;;;;;29.20;14.05;;;;;;;1.69;100.00;98766.44;6108490;19;20053;-70
2024/02/28 05:37:57;;;;;;;29.45;13.20;;;;;;;1.64;100.00;98764.63;6108612;19;20011;-70
2024/02/28 05:39:58;;;;;;;27.85;13.77;;;;;;;1.59;100.00;98772.97;6107300;19;20426;-70
2024/02/28 05:41:58;;;;;;;28.92;14.40;;;;;;;1.57;100.00;98769.75;6108769;19;20041;-70
2024/02/28 05:43:58;;;;;;;30.73;14.23;;;;;;;1.56;100.00;98772.78;6108675;19;20002;-70
2024/02/28 05:45:59;;;;;;;29.92;13.02;;;;;;;1.52;100.00;98775.34;6108688;19;20005;-70
2024/02/28 05:47:59;;;;;;;29.15;14.80;;;;;;;1.52;100.00;98778.06;6109347;19;20351;-70
2024/02/28 05:49:59;;;;;;;30.80;14.93;;;;;;;1.55;100.00;98788.34;6107728;19;20078;-70
2024/02/28 05:52:00;;;;;;;34.20;14.90;;;;;;;1.56;100.00;98787.22;6109364;19;20003;-70
2024/02/28 05:54:00;;;;;;;34.58;14.70;;;;;;;1.56;100.00;98789.94;6108972;19;20007;-70
2024/02/28 05:56:01;;;;;;;29.73;14.13;;;;;;;1.51;100.00;98781.91;6108470;19;20014;-70
2024/02/28 05:58:01;;;;;;;28.77;15.00;;;;;;;1.49;100.00;98796.94;6108117;19;20017;-70
2024/02/28 06:00:09;;;;;;;30.75;14.73;;;;;;;1.45;100.00;98793.25;6107117;19;20009;-70
2024/02/28 06:02:10;;;;;;;34.95;15.05;;;;;;;1.45;100.00;98804.94;6107741;19;20082;-70
2024/02/28 06:04:10;;;;;;;34.65;15.05;;;;;;;1.40;100.00;98799.59;6107390;19;20048;-70
2024/02/28 06:06:10;;;;;;;28.83;14.73;;;;;;;1.34;100.00;98796.22;6107603;19;19995;-69
2024/02/28 06:08:11;;;;;;;30.10;13.82;;;;;;;1.32;100.00;98803.06;6108664;19;20331;-69
2024/02/28 06:10:11;;;;;;;30.40;15.50;;;;;;;1.31;100.00;98815.91;6105379;19;19995;-69
2024/02/28 06:12:11;;;;;;;40.22;15.70;;;;;;;1.31;100.00;98812.38;6106824;19;20005;-69
2024/02/28 06:14:12;;;;;;;33.15;15.23;;;;;;;1.32;100.00;98817.50;6103426;19;20531;-69
2024/02/28 06:16:17;;;;;;;34.15;15.65;;;;;;;1.31;100.00;98829.53;6099730;19;20020;-69
2024/02/28 06:18:17;;;;;;;30.55;14.68;;;;;;;1.26;100.00;98826.16;6099641;19;20070;-69
2024/02/28 06:20:18;;;;;;;31.75;15.15;;;;;;;1.22;100.00;98817.75;6098015;19;20484;-69
2024/02/28 06:22:18;;;;;;;32.33;15.90;;;;;;;1.23;100.00;98815.84;6098641;19;20003;-69
2024/02/28 06:24:19;;;;;;;29.08;13.88;;;;;;;1.22;100.00;98823.22;6100072;19;20003;-69
2024/02/28 06:26:20;;;;;;;28.90;14.40;;;;;;;1.23;100.00;98826.75;6098293;19;20353;-69
2024/02/28 06:28:21;;;;;;;28.52;13.52;;;;;;;1.22;100.00;98819.69;6100404;19;20438;-70
2024/02/28 06:30:21;;;;;;;28.90;14.27;;;;;;;1.23;100.00;98818.56;6100620;19;20347;-69
2024/02/28 06:32:24;;;;;;;24.75;12.68;;;;;;;1.24;100.00;98820.16;6099912;19;20014;-69
2024/02/28 06:34:24;;;;;;;27.92;13.38;;;;;;;1.25;100.00;98824.53;6100552;19;20013;-69
2024/02/28 06:36:24;;;;;;;30.42;14.30;;;;;;;1.26;100.00;98839.78;6099857;19;20006;-69
2024/02/28 06:38:25;;;;;;;29.42;15.10;;;;;;;1.26;100.00;98831.59;6099363;19;20003;-69
2024/02/28 06:40:26;;;;;;;30.83;15.18;;;;;;;1.26;100.00;98823.41;6098500;19;20273;-69
2024/02/28 06:42:26;;;;;;;30.63;14.52;;;;;;;1.25;100.00;98825.34;6098600;19;20534;-69
2024/02/28 06:44:26;;;;;;;27.40;13.35;;;;;;;1.26;100.00;98824.22;6101399;19;20021;-69
2024/02/28 06:46:27;;;;;;;32.08;14.43;;;;;;;1.27;100.00;98830.47;6100371;19;20003;-69
2024/02/28 06:48:28;;;;;;;29.70;13.93;;;;;;;1.26;100.00;98839.78;6100526;19;20006;-69
2024/02/28 06:50:29;;;;;;;30.92;14.00;;;;;;;1.22;100.00;98850.47;6102116;19;20329;-69
2024/02/28 06:52:29;;;;;;;26.45;13.38;;;;;;;1.21;100.00;98848.84;6104269;19;20006;-69
2024/02/28 06:54:30;;;;;;;26.63;13.57;;;;;;;1.19;100.00;98844.84;6105312;19;20011;-69
2024/02/28 06:56:30;;;;;;;25.45;14.02;;;;;;;1.17;100.00;98849.81;6106046;19;20077;-69
2024/02/28 06:58:31;;;;;;;27.13;13.60;;;;;;;1.16;100.00;98857.16;6107067;19;20002;-69
2024/02/28 07:00:31;;;;;;;32.83;14.32;;;;;;;1.17;100.00;98863.44;6104567;19;20035;-69
2024/02/28 07:02:31;;;;;;;26.00;13.32;;;;;;;1.16;100.00;98865.34;6105714;19;20054;-69
2024/02/28 07:04:32;;;;;;;28.55;13.52;;;;;;;1.20;100.00;98868.25;6106695;19;20003;-69
2024/02/28 07:06:32;;;;;;;26.45;13.35;;;;;;;1.21;100.00;98867.13;6105857;19;20529;-69
2024/02/28 07:08:32;;;;;;;32.47;15.55;;;;;;;1.26;100.00;98858.84;6105413;19;20006;-69
2024/02/28 07:10:33;;;;;;;27.23;14.68;;;;;;;1.26;100.00;98851.47;6104919;19;20040;-69
2024/02/28 07:12:33;;;;;;;35.40;15.93;;;;;;;1.29;100.00;98853.59;6105042;19;20343;-69
2024/02/28 07:14:34;;;;;;;29.95;15.15;;;;;;;1.30;100.00;98855.19;6105818;19;20523;-69
2024/02/28 07:16:34;;;;;;;37.90;17.65;;;;;;;1.32;100.00;98850.22;6113107;19;20013;-69
2024/02/28 07:18:35;;;;;;;33.17;15.93;;;;;;;1.32;100.00;98861.13;6112785;19;20026;-69
2024/02/28 07:20:35;;;;;;;33.00;15.88;;;;;;;1.35;100.00;98854.28;6111783;19;20010;-69
2024/02/28 07:22:36;;;;;;;37.22;16.08;;;;;;;1.39;100.00;98871.63;6112147;19;20010;-69
2024/02/28 07:24:39;;;;;;;36.25;15.90;;;;;;;1.44;100.00;98862.53;6111819;19;20015;-70
2024/02/28 07:26:40;;;;;;;32.80;14.45;;;;;;;1.50;100.00;98855.84;6111619;19;20055;-70
2024/02/28 07:28:41;;;;;;;33.63;13.88;;;;;;;1.53;100.00;98857.94;6112662;19;20006;-69
2024/02/28 07:30:43;;;;;;;32.55;14.65;;;;;;;1.57;100.00;98859.75;6110535;19;20090;-69
2024/02/28 07:32:44;;;;;;;31.02;14.95;;;;;;;1.65;100.00;98866.38;6113108;19;20267;-69
2024/02/28 07:34:44;;;;;;;39.25;16.65;;;;;;;1.68;100.00;98860.31;6111537;19;20463;-69
2024/02/28 07:36:44;;;;;;;35.90;14.45;;;;;;;1.74;100.00;98861.81;6111987;19;20014;-69
2024/02/28 07:38:45;;;;;;;38.20;15.30;;;;;;;1.78;100.00;98864.69;6111922;19;20019;-69
2024/02/28 07:40:47;;;;;;;32.17;14.38;;;;;;;1.81;100.00;98859.41;6110459;19;20078;-69
2024/02/28 07:42:47;;;;;;;31.23;13.55;;;;;;;1.86;100.00;98874.88;6112026;19;20014;-69
2024/02/28 07:44:49;;;;;;;30.50;13.30;;;;;;;1.89;100.00;98874.25;6111814;19;20535;-69
2024/02/28 07:46:50;;;;;;;35.90;15.60;;;;;;;1.93;100.00;98870.59;6112404;19;20094;-69
2024/02/28 07:48:50;;;;;;;27.50;12.15;;;;;;;1.98;100.00;98870.44;6111909;19;20017;-69
2024/02/28 07:50:51;;;;;;;37.38;16.52;;;;;;;2.07;100.00;98875.16;6110133;19;20459;-69
2024/02/28 07:52:54;;;;;;;34.63;15.85;;;;;;;2.11;100.00;98871.50;6111697;19;20015;-69
2024/02/28 07:54:54;;;;;;;37.60;16.83;;;;;;;2.16;100.00;98878.75;6111203;19;20403;-69
2024/02/28 07:56:55;;;;;;;39.03;17.92;;;;;;;2.23;100.00;98876.34;6112199;19;20003;-69
2024/02/28 07:58:56;;;;;;;36.60;17.17;;;;;;;2.31;100.00;98881.06;6111992;19;20107;-69
2024/02/28 08:00:56;;;;;;;34.25;17.15;;;;;;;2.38;100.00;98875.97;6109771;19;20034;-69
2024/02/28 08:02:57;;;;;;;72.63;34.05;;;;;;;2.42;100.00;98881.63;6110737;19;20006;-69
2024/02/28 08:04:57;;;;;;;35.60;16.48;;;;;;;2.46;100.00;98880.66;6111539;19;20003;-69
2024/02/28 08:06:57;;;;;;;29.13;13.98;;;;;;;2.51;100.00;98880.53;6111594;19;20003;-69
2024/02/28 08:08:58;;;;;;;31.52;14.00;;;;;;;2.52;100.00;98892.25;6111722;19;20029;-69
2024/02/28 08:10:58;;;;;;;27.77;15.10;;;;;;;2.57;100.00;98885.88;6108185;19;20343;-69
2024/02/28 08:12:59;;;;;;;26.80;12.68;;;;;;;2.56;100.00;98884.22;6110312;19;20011;-69
2024/02/28 08:14:59;;;;;;;28.10;13.13;;;;;;;2.61;100.00;98887.63;6111416;19;20318;-69
2024/02/28 08:16:59;;;;;;;25.88;12.35;;;;;;;2.66;100.00;98892.97;6110767;19;20024;-69
2024/02/28 08:19:00;;;;;;;25.65;13.00;;;;;;;2.68;100.00;98890.72;6110295;19;20029;-69
2024/02/28 08:21:02;;;;;;;24.30;12.48;;;;;;;2.69;100.00;98886.84;6109312;19;20003;-69
2024/02/28 08:23:03;;;;;;;34.63;13.32;;;;;;;2.82;100.00;98896.06;6111945;19;20345;-69
2024/02/28 08:25:04;;;;;;;35.45;15.93;;;;;;;2.88;100.00;98894.78;6110647;19;19998;-69
2024/02/28 08:27:04;;;;;;;37.17;15.27;;;;;;;2.87;100.00;98886.91;6111439;19;20006;-69
2024/02/28 08:29:05;;;;;;;44.53;18.67;;;;;;;2.84;100.00;98899.28;6111636;19;20007;-69
2024/02/28 08:31:05;;;;;;;25.90;13.43;;;;;;;2.76;100.00;98891.88;6110107;19;19999;-69
2024/02/28 08:33:07;;;;;;;24.88;13.13;;;;;;;2.75;100.00;98890.25;6110785;19;20010;-69
2024/02/28 08:35:10;;;;;;;21.77;11.70;;;;;;;2.73;100.00;98893.31;6110527;19;20509;-69
2024/02/28 08:37:10;;;;;;;27.92;11.95;;;;;;;2.66;100.00;98892.97;6111333;19;20014;-69
2024/02/28 08:39:11;;;;;;;23.95;11.63;;;;;;;2.62;100.00;98900.16;6110682;19;20069;-69
2024/02/28 08:41:12;;;;;;;26.77;12.32;;;;;;;2.63;100.00;98896.31;6109051;19;20022;-69
2024/02/28 08:43:12;;;;;;;27.23;11.75;;;;;;;2.62;100.00;98899.38;6110911;19;19999;-69
2024/02/28 08:45:13;;;;;;;23.92;11.68;;;;;;;2.62;100.00;98899.38;6111100;19;20381;-69
2024/02/28 08:47:14;;;;;;;20.63;10.15;;;;;;;2.59;100.00;98903.53;6110330;19;20026;-69
2024/02/28 08:49:14;;;;;;;20.60;10.98;;;;;;;2.64;100.00;98908.84;6111036;19;20400;-69
2024/02/28 08:51:14;;;;;;;19.88;10.63;;;;;;;2.71;100.00;98906.47;6109797;19;20002;-69
2024/02/28 08:53:15;;;;;;;19.40;9.45;;;;;;;2.75;100.00;98896.53;6109451;19;20006;-69
2024/02/28 08:55:18;;;;;;;21.70;10.65;;;;;;;2.74;100.00;98897.66;6110724;19;20009;-69
2024/02/28 08:57:20;;;;;;;25.67;10.65;;;;;;;2.76;100.00;98894.59;6110558;19;20007;-69
2024/02/28 08:59:21;;;;;;;20.30;10.73;;;;;;;2.84;100.00;98904.75;6111092;19;20484;-69
2024/02/28 09:01:22;;;;;;;18.75;10.00;;;;;;;2.90;100.00;98905.44;6108022;19;20260;-69
2024/02/28 09:03:22;;;;;;;21.25;10.57;;;;;;;2.95;100.00;98903.34;6108549;19;20007;-69
2024/02/28 09:05:23;;;;;;;19.65;10.57;;;;;;;3.02;100.00;98911.06;6110634;19;20311;-69
2024/02/28 09:07:23;;;;;;;28.00;12.82;;;;;;;3.04;100.00;98906.88;6110184;19;20003;-69
2024/02/28 09:09:24;;;;;;;23.13;11.35;;;;;;;3.05;100.00;98911.22;6110045;19;20019;-69
2024/02/28 09:11:27;;;;;;;28.17;12.55;;;;;;;3.14;100.00;98907.72;6108239;19;20002;-69
2024/02/28 09:13:27;;;;;;;24.52;11.65;;;;;;;3.18;100.00;98905.97;6108259;19;20002;-69
2024/02/28 09:15:28;;;;;;;27.83;13.45;;;;;;;3.21;100.00;98922.53;6108855;19;20015;-69